5AL8 weather

Fairlane Airport
Samson, Alabama, United States

Public forecast

Using degrees Fahrenheit for public forecast. Weather courtesy of forecast.io.

METAR (pilot weather report)

Closest report is Enterprise Municipal Airport, 12.6 nm (23.4 km) NNE. Retrieved 2017/12/16 01:35 UTC (20 minutes ago):

KEDN 160135Z AUTO 01003KT 10SM SCT110 06/M01 A3020 RMK AO2 T00551008

TAF (pilot weather forecast)

Closest forecast is Cairns AAF (Fort Rucker) Air Field, 17.6 nm (32.7 km) NE. Retrieved 2017/12/16 00:31 UTC (1 hour ago):

TAF KOZR 160000Z 1600/1706 34006KT 9999 BKN100 QNH3016INS BECMG 1605/1606 01006KT 9999 FEW100 BKN250 QNH3020INS BECMG 1617/1618 04006KT 9999 FEW080 SCT250 QNH3024INS BECMG 1702/1703 10006KT 9999 FEW050 QNH3025INS TX12/1620Z TN02/1610Z